sensor_id;sensor_type;location;lat;lon;timestamp;P1;durP1;ratioP1;P2;durP2;ratioP2
1591;SDS011;789;51.612;7.510;2023-08-01T00:00:51;3.80;;;3.50;;
1591;SDS011;789;51.612;7.510;2023-08-01T00:03:18;4.60;;;4.10;;
1591;SDS011;789;51.612;7.510;2023-08-01T00:05:45;6.97;;;4.70;;
1591;SDS011;789;51.612;7.510;2023-08-01T00:08:12;6.17;;;5.57;;
1591;SDS011;789;51.612;7.510;2023-08-01T00:10:40;11.37;;;7.50;;
1591;SDS011;789;51.612;7.510;2023-08-01T00:13:08;7.93;;;6.40;;
1591;SDS011;789;51.612;7.510;2023-08-01T00:15:35;8.20;;;6.97;;
1591;SDS011;789;51.612;7.510;2023-08-01T00:18:03;11.13;;;8.90;;
1591;SDS011;789;51.612;7.510;2023-08-01T00:20:30;9.20;;;7.80;;
1591;SDS011;789;51.612;7.510;2023-08-01T00:22:56;10.27;;;7.10;;
1591;SDS011;789;51.612;7.510;2023-08-01T00:25:23;5.07;;;4.57;;
1591;SDS011;789;51.612;7.510;2023-08-01T00:27:51;3.20;;;2.80;;
1591;SDS011;789;51.612;7.510;2023-08-01T00:30:20;3.30;;;3.00;;
1591;SDS011;789;51.612;7.510;2023-08-01T00:32:47;3.63;;;3.13;;
1591;SDS011;789;51.612;7.510;2023-08-01T00:35:14;5.10;;;3.00;;
1591;SDS011;789;51.612;7.510;2023-08-01T00:37:42;3.70;;;3.33;;
1591;SDS011;789;51.612;7.510;2023-08-01T00:40:09;2.53;;;2.30;;
1591;SDS011;789;51.612;7.510;2023-08-01T00:42:36;5.63;;;2.80;;
1591;SDS011;789;51.612;7.510;2023-08-01T00:45:05;4.27;;;3.00;;
1591;SDS011;789;51.612;7.510;2023-08-01T00:47:33;3.60;;;2.60;;
1591;SDS011;789;51.612;7.510;2023-08-01T00:50:01;2.33;;;2.00;;
1591;SDS011;789;51.612;7.510;2023-08-01T00:52:28;3.70;;;1.60;;
1591;SDS011;789;51.612;7.510;2023-08-01T00:54:55;2.53;;;1.20;;
1591;SDS011;789;51.612;7.510;2023-08-01T00:57:22;1.77;;;1.50;;
1591;SDS011;789;51.612;7.510;2023-08-01T00:59:48;1.60;;;1.50;;
1591;SDS011;789;51.612;7.510;2023-08-01T01:02:17;1.80;;;1.70;;
1591;SDS011;789;51.612;7.510;2023-08-01T01:04:44;2.37;;;2.13;;
1591;SDS011;789;51.612;7.510;2023-08-01T01:07:11;2.40;;;2.20;;
1591;SDS011;789;51.612;7.510;2023-08-01T01:09:38;2.60;;;2.40;;
1591;SDS011;789;51.612;7.510;2023-08-01T01:12:05;1.70;;;1.60;;
1591;SDS011;789;51.612;7.510;2023-08-01T01:14:33;2.80;;;2.10;;
1591;SDS011;789;51.612;7.510;2023-08-01T01:16:59;2.07;;;1.87;;
1591;SDS011;789;51.612;7.510;2023-08-01T01:19:29;1.83;;;1.73;;
1591;SDS011;789;51.612;7.510;2023-08-01T01:21:57;1.87;;;1.73;;
1591;SDS011;789;51.612;7.510;2023-08-01T01:24:25;1.70;;;1.60;;
1591;SDS011;789;51.612;7.510;2023-08-01T01:26:53;2.17;;;1.83;;
1591;SDS011;789;51.612;7.510;2023-08-01T01:29:24;1.53;;;1.43;;
1591;SDS011;789;51.612;7.510;2023-08-01T01:31:52;2.00;;;1.80;;
1591;SDS011;789;51.612;7.510;2023-08-01T01:34:21;3.63;;;2.00;;
1591;SDS011;789;51.612;7.510;2023-08-01T01:36:48;5.17;;;2.20;;
1591;SDS011;789;51.612;7.510;2023-08-01T01:39:16;2.27;;;1.93;;
1591;SDS011;789;51.612;7.510;2023-08-01T01:41:45;2.00;;;1.80;;
1591;SDS011;789;51.612;7.510;2023-08-01T01:44:12;3.13;;;2.20;;
1591;SDS011;789;51.612;7.510;2023-08-01T01:46:42;2.30;;;2.10;;
1591;SDS011;789;51.612;7.510;2023-08-01T01:49:08;2.50;;;2.00;;
1591;SDS011;789;51.612;7.510;2023-08-01T01:51:40;5.00;;;2.20;;
1591;SDS011;789;51.612;7.510;2023-08-01T01:54:07;1.80;;;1.70;;
1591;SDS011;789;51.612;7.510;2023-08-01T01:56:35;3.70;;;2.40;;
1591;SDS011;789;51.612;7.510;2023-08-01T01:59:02;3.40;;;2.57;;
1591;SDS011;789;51.612;7.510;2023-08-01T02:01:29;4.20;;;3.07;;
1591;SDS011;789;51.612;7.510;2023-08-01T02:03:55;5.60;;;5.10;;
1591;SDS011;789;51.612;7.510;2023-08-01T02:06:22;2.90;;;2.70;;
1591;SDS011;789;51.612;7.510;2023-08-01T02:08:49;3.03;;;2.83;;
1591;SDS011;789;51.612;7.510;2023-08-01T02:11:16;4.20;;;2.87;;
1591;SDS011;789;51.612;7.510;2023-08-01T02:13:44;2.83;;;2.63;;
1591;SDS011;789;51.612;7.510;2023-08-01T02:16:10;2.80;;;2.60;;
1591;SDS011;789;51.612;7.510;2023-08-01T02:18:38;3.13;;;2.60;;
1591;SDS011;789;51.612;7.510;2023-08-01T02:21:04;3.30;;;3.03;;
1591;SDS011;789;51.612;7.510;2023-08-01T02:23:31;4.30;;;3.90;;
1591;SDS011;789;51.612;7.510;2023-08-01T02:26:01;4.03;;;2.83;;
1591;SDS011;789;51.612;7.510;2023-08-01T02:28:29;2.77;;;2.57;;
1591;SDS011;789;51.612;7.510;2023-08-01T02:30:58;2.73;;;2.43;;
1591;SDS011;789;51.612;7.510;2023-08-01T02:33:27;3.07;;;2.70;;
1591;SDS011;789;51.612;7.510;2023-08-01T02:35:53;2.80;;;2.53;;
1591;SDS011;789;51.612;7.510;2023-08-01T02:38:20;3.83;;;2.80;;
1591;SDS011;789;51.612;7.510;2023-08-01T02:40:47;2.97;;;2.77;;
1591;SDS011;789;51.612;7.510;2023-08-01T02:43:14;3.57;;;3.20;;
1591;SDS011;789;51.612;7.510;2023-08-01T02:45:41;3.13;;;2.83;;
1591;SDS011;789;51.612;7.510;2023-08-01T02:48:09;3.93;;;3.00;;
1591;SDS011;789;51.612;7.510;2023-08-01T02:50:37;3.50;;;3.13;;
1591;SDS011;789;51.612;7.510;2023-08-01T02:53:04;3.47;;;3.10;;
1591;SDS011;789;51.612;7.510;2023-08-01T02:55:31;3.93;;;3.60;;
1591;SDS011;789;51.612;7.510;2023-08-01T02:57:58;4.00;;;3.30;;
1591;SDS011;789;51.612;7.510;2023-08-01T03:00:25;8.00;;;3.83;;
1591;SDS011;789;51.612;7.510;2023-08-01T03:02:51;3.87;;;3.10;;
1591;SDS011;789;51.612;7.510;2023-08-01T03:05:20;6.00;;;3.90;;
1591;SDS011;789;51.612;7.510;2023-08-01T03:07:46;4.50;;;4.10;;
1591;SDS011;789;51.612;7.510;2023-08-01T03:10:13;4.23;;;3.93;;
1591;SDS011;789;51.612;7.510;2023-08-01T03:12:40;5.93;;;4.30;;
1591;SDS011;789;51.612;7.510;2023-08-01T03:15:07;5.57;;;5.00;;
1591;SDS011;789;51.612;7.510;2023-08-01T03:17:34;6.00;;;5.37;;
1591;SDS011;789;51.612;7.510;2023-08-01T03:20:01;6.83;;;5.33;;
1591;SDS011;789;51.612;7.510;2023-08-01T03:22:30;6.27;;;5.60;;
1591;SDS011;789;51.612;7.510;2023-08-01T03:24:58;7.40;;;6.60;;
1591;SDS011;789;51.612;7.510;2023-08-01T03:27:25;7.90;;;7.07;;
1591;SDS011;789;51.612;7.510;2023-08-01T03:29:52;8.53;;;7.60;;
1591;SDS011;789;51.612;7.510;2023-08-01T03:32:19;9.07;;;8.20;;
1591;SDS011;789;51.612;7.510;2023-08-01T03:34:46;10.13;;;9.03;;
1591;SDS011;789;51.612;7.510;2023-08-01T03:37:13;11.87;;;9.20;;
1591;SDS011;789;51.612;7.510;2023-08-01T03:39:41;11.80;;;10.17;;
1591;SDS011;789;51.612;7.510;2023-08-01T03:42:08;12.00;;;10.80;;
1591;SDS011;789;51.612;7.510;2023-08-01T03:44:34;13.17;;;11.17;;
1591;SDS011;789;51.612;7.510;2023-08-01T03:47:01;16.30;;;12.03;;
1591;SDS011;789;51.612;7.510;2023-08-01T03:49:29;15.07;;;11.80;;
1591;SDS011;789;51.612;7.510;2023-08-01T03:51:55;16.43;;;12.50;;
1591;SDS011;789;51.612;7.510;2023-08-01T03:54:25;17.67;;;12.93;;
1591;SDS011;789;51.612;7.510;2023-08-01T03:56:54;15.13;;;12.80;;
1591;SDS011;789;51.612;7.510;2023-08-01T03:59:20;15.03;;;13.50;;
1591;SDS011;789;51.612;7.510;2023-08-01T04:01:47;14.70;;;12.97;;
1591;SDS011;789;51.612;7.510;2023-08-01T04:04:15;15.33;;;13.20;;
1591;SDS011;789;51.612;7.510;2023-08-01T04:06:42;15.50;;;13.90;;
1591;SDS011;789;51.612;7.510;2023-08-01T04:09:09;16.80;;;15.03;;
1591;SDS011;789;51.612;7.510;2023-08-01T04:11:36;18.03;;;15.17;;
1591;SDS011;789;51.612;7.510;2023-08-01T04:14:04;15.90;;;14.20;;
1591;SDS011;789;51.612;7.510;2023-08-01T04:16:31;18.90;;;15.40;;
1591;SDS011;789;51.612;7.510;2023-08-01T04:18:58;15.87;;;14.03;;
1591;SDS011;789;51.612;7.510;2023-08-01T04:21:24;16.13;;;14.33;;
1591;SDS011;789;51.612;7.510;2023-08-01T04:23:51;18.90;;;14.13;;
1591;SDS011;789;51.612;7.510;2023-08-01T04:26:18;17.80;;;15.53;;
1591;SDS011;789;51.612;7.510;2023-08-01T04:28:47;17.80;;;15.20;;
1591;SDS011;789;51.612;7.510;2023-08-01T04:31:18;19.17;;;16.47;;
1591;SDS011;789;51.612;7.510;2023-08-01T04:33:44;19.50;;;15.30;;
1591;SDS011;789;51.612;7.510;2023-08-01T04:36:11;18.63;;;16.23;;
1591;SDS011;789;51.612;7.510;2023-08-01T04:38:38;20.00;;;16.87;;
1591;SDS011;789;51.612;7.510;2023-08-01T04:41:05;19.93;;;16.80;;
1591;SDS011;789;51.612;7.510;2023-08-01T04:43:33;20.27;;;17.87;;
1591;SDS011;789;51.612;7.510;2023-08-01T04:46:01;20.83;;;17.30;;
1591;SDS011;789;51.612;7.510;2023-08-01T04:48:29;22.47;;;17.73;;
1591;SDS011;789;51.612;7.510;2023-08-01T04:50:56;25.37;;;18.70;;
1591;SDS011;789;51.612;7.510;2023-08-01T04:53:23;22.97;;;18.03;;
1591;SDS011;789;51.612;7.510;2023-08-01T04:55:52;26.20;;;19.80;;
1591;SDS011;789;51.612;7.510;2023-08-01T04:58:19;21.63;;;18.47;;
1591;SDS011;789;51.612;7.510;2023-08-01T05:00:46;26.60;;;19.37;;
1591;SDS011;789;51.612;7.510;2023-08-01T05:03:13;24.67;;;19.73;;
1591;SDS011;789;51.612;7.510;2023-08-01T05:05:41;22.70;;;17.37;;
1591;SDS011;789;51.612;7.510;2023-08-01T05:08:08;19.30;;;16.40;;
1591;SDS011;789;51.612;7.510;2023-08-01T05:10:34;19.67;;;16.77;;
1591;SDS011;789;51.612;7.510;2023-08-01T05:13:05;22.47;;;16.70;;
1591;SDS011;789;51.612;7.510;2023-08-01T05:15:32;24.07;;;16.87;;
1591;SDS011;789;51.612;7.510;2023-08-01T05:17:59;18.37;;;14.60;;
1591;SDS011;789;51.612;7.510;2023-08-01T05:20:26;19.90;;;15.33;;
1591;SDS011;789;51.612;7.510;2023-08-01T05:22:57;20.33;;;15.83;;
1591;SDS011;789;51.612;7.510;2023-08-01T05:25:24;20.03;;;14.73;;
1591;SDS011;789;51.612;7.510;2023-08-01T05:27:50;16.23;;;13.93;;
1591;SDS011;789;51.612;7.510;2023-08-01T05:30:17;21.30;;;15.70;;
1591;SDS011;789;51.612;7.510;2023-08-01T05:32:44;20.17;;;15.63;;
1591;SDS011;789;51.612;7.510;2023-08-01T05:35:12;28.40;;;16.13;;
1591;SDS011;789;51.612;7.510;2023-08-01T05:37:38;21.47;;;16.37;;
1591;SDS011;789;51.612;7.510;2023-08-01T05:40:08;26.10;;;16.43;;
1591;SDS011;789;51.612;7.510;2023-08-01T05:42:35;23.00;;;16.73;;
1591;SDS011;789;51.612;7.510;2023-08-01T05:45:02;24.87;;;20.60;;
1591;SDS011;789;51.612;7.510;2023-08-01T05:47:30;23.23;;;19.83;;
1591;SDS011;789;51.612;7.510;2023-08-01T05:49:59;25.93;;;18.90;;
1591;SDS011;789;51.612;7.510;2023-08-01T05:52:26;23.23;;;18.50;;
1591;SDS011;789;51.612;7.510;2023-08-01T05:54:58;23.53;;;19.00;;
1591;SDS011;789;51.612;7.510;2023-08-01T05:57:26;21.20;;;18.27;;
1591;SDS011;789;51.612;7.510;2023-08-01T05:59:53;21.40;;;17.20;;
1591;SDS011;789;51.612;7.510;2023-08-01T06:02:20;21.50;;;19.30;;
1591;SDS011;789;51.612;7.510;2023-08-01T06:04:47;25.60;;;18.13;;
1591;SDS011;789;51.612;7.510;2023-08-01T06:07:13;22.20;;;16.43;;
1591;SDS011;789;51.612;7.510;2023-08-01T06:09:41;23.23;;;17.67;;
1591;SDS011;789;51.612;7.510;2023-08-01T06:12:08;20.77;;;18.57;;
1591;SDS011;789;51.612;7.510;2023-08-01T06:14:36;24.87;;;18.50;;
1591;SDS011;789;51.612;7.510;2023-08-01T06:17:03;31.30;;;18.40;;
1591;SDS011;789;51.612;7.510;2023-08-01T06:19:30;26.90;;;17.80;;
1591;SDS011;789;51.612;7.510;2023-08-01T06:21:57;22.13;;;17.97;;
1591;SDS011;789;51.612;7.510;2023-08-01T06:24:25;21.67;;;17.83;;
1591;SDS011;789;51.612;7.510;2023-08-01T06:26:52;24.13;;;20.27;;
1591;SDS011;789;51.612;7.510;2023-08-01T06:29:18;24.27;;;18.77;;
1591;SDS011;789;51.612;7.510;2023-08-01T06:31:46;23.63;;;19.00;;
1591;SDS011;789;51.612;7.510;2023-08-01T06:34:13;22.73;;;19.03;;
1591;SDS011;789;51.612;7.510;2023-08-01T06:36:40;21.77;;;19.47;;
1591;SDS011;789;51.612;7.510;2023-08-01T06:39:07;27.03;;;20.60;;
1591;SDS011;789;51.612;7.510;2023-08-01T06:41:34;22.83;;;20.43;;
1591;SDS011;789;51.612;7.510;2023-08-01T06:44:01;23.47;;;19.80;;
1591;SDS011;789;51.612;7.510;2023-08-01T06:46:27;23.30;;;21.00;;
1591;SDS011;789;51.612;7.510;2023-08-01T06:48:57;22.40;;;19.60;;
1591;SDS011;789;51.612;7.510;2023-08-01T06:51:24;23.23;;;19.93;;
1591;SDS011;789;51.612;7.510;2023-08-01T06:53:51;26.30;;;21.07;;
1591;SDS011;789;51.612;7.510;2023-08-01T06:56:18;25.27;;;21.40;;
1591;SDS011;789;51.612;7.510;2023-08-01T06:58:45;25.30;;;20.77;;
1591;SDS011;789;51.612;7.510;2023-08-01T07:01:12;25.37;;;20.30;;
1591;SDS011;789;51.612;7.510;2023-08-01T07:03:39;31.10;;;21.90;;
1591;SDS011;789;51.612;7.510;2023-08-01T07:06:07;25.30;;;20.13;;
1591;SDS011;789;51.612;7.510;2023-08-01T07:08:35;24.00;;;19.70;;
1591;SDS011;789;51.612;7.510;2023-08-01T07:11:02;25.57;;;18.80;;
1591;SDS011;789;51.612;7.510;2023-08-01T07:13:28;24.10;;;19.70;;
1591;SDS011;789;51.612;7.510;2023-08-01T07:15:55;23.43;;;19.00;;
1591;SDS011;789;51.612;7.510;2023-08-01T07:18:22;25.20;;;20.10;;
1591;SDS011;789;51.612;7.510;2023-08-01T07:20:58;28.60;;;19.87;;
1591;SDS011;789;51.612;7.510;2023-08-01T07:23:27;29.23;;;20.10;;
1591;SDS011;789;51.612;7.510;2023-08-01T07:25:54;24.50;;;19.30;;
1591;SDS011;789;51.612;7.510;2023-08-01T07:28:21;21.53;;;18.53;;
1591;SDS011;789;51.612;7.510;2023-08-01T07:30:47;21.80;;;18.60;;
1591;SDS011;789;51.612;7.510;2023-08-01T07:33:14;23.53;;;19.30;;
1591;SDS011;789;51.612;7.510;2023-08-01T07:35:41;21.60;;;19.30;;
1591;SDS011;789;51.612;7.510;2023-08-01T07:38:08;23.47;;;17.77;;
1591;SDS011;789;51.612;7.510;2023-08-01T07:40:37;23.37;;;17.77;;
1591;SDS011;789;51.612;7.510;2023-08-01T07:43:04;18.00;;;16.20;;
1591;SDS011;789;51.612;7.510;2023-08-01T07:45:32;24.33;;;15.77;;
1591;SDS011;789;51.612;7.510;2023-08-01T07:47:59;16.57;;;14.00;;
1591;SDS011;789;51.612;7.510;2023-08-01T07:50:26;17.50;;;14.13;;
1591;SDS011;789;51.612;7.510;2023-08-01T07:52:56;15.10;;;13.50;;
1591;SDS011;789;51.612;7.510;2023-08-01T07:55:23;18.47;;;13.53;;
1591;SDS011;789;51.612;7.510;2023-08-01T07:57:51;16.53;;;14.20;;
1591;SDS011;789;51.612;7.510;2023-08-01T08:00:18;15.57;;;13.47;;
1591;SDS011;789;51.612;7.510;2023-08-01T08:02:45;15.93;;;13.70;;
1591;SDS011;789;51.612;7.510;2023-08-01T08:05:15;17.63;;;12.87;;
1591;SDS011;789;51.612;7.510;2023-08-01T08:07:43;15.73;;;12.77;;
1591;SDS011;789;51.612;7.510;2023-08-01T08:10:10;16.23;;;13.10;;
1591;SDS011;789;51.612;7.510;2023-08-01T08:12:37;16.57;;;13.13;;
1591;SDS011;789;51.612;7.510;2023-08-01T08:15:07;14.37;;;11.80;;
1591;SDS011;789;51.612;7.510;2023-08-01T08:17:40;15.50;;;12.10;;
1591;SDS011;789;51.612;7.510;2023-08-01T08:20:07;14.37;;;12.00;;
1591;SDS011;789;51.612;7.510;2023-08-01T08:22:34;14.50;;;13.00;;
1591;SDS011;789;51.612;7.510;2023-08-01T08:25:01;15.10;;;12.30;;
1591;SDS011;789;51.612;7.510;2023-08-01T08:27:28;14.30;;;11.90;;
1591;SDS011;789;51.612;7.510;2023-08-01T08:29:55;15.13;;;12.50;;
1591;SDS011;789;51.612;7.510;2023-08-01T08:32:23;14.30;;;12.47;;
1591;SDS011;789;51.612;7.510;2023-08-01T08:34:50;18.50;;;12.00;;
1591;SDS011;789;51.612;7.510;2023-08-01T08:37:17;14.27;;;11.93;;
1591;SDS011;789;51.612;7.510;2023-08-01T08:39:43;11.43;;;10.07;;
1591;SDS011;789;51.612;7.510;2023-08-01T08:42:10;13.30;;;11.90;;
1591;SDS011;789;51.612;7.510;2023-08-01T08:44:41;11.30;;;10.20;;
1591;SDS011;789;51.612;7.510;2023-08-01T08:47:10;11.77;;;9.67;;
1591;SDS011;789;51.612;7.510;2023-08-01T08:49:39;11.07;;;9.63;;
1591;SDS011;789;51.612;7.510;2023-08-01T08:52:07;10.43;;;9.33;;
1591;SDS011;789;51.612;7.510;2023-08-01T08:54:36;14.10;;;8.43;;
1591;SDS011;789;51.612;7.510;2023-08-01T08:57:05;14.27;;;8.37;;
1591;SDS011;789;51.612;7.510;2023-08-01T08:59:32;9.73;;;7.40;;
1591;SDS011;789;51.612;7.510;2023-08-01T09:02:00;11.83;;;7.67;;
1591;SDS011;789;51.612;7.510;2023-08-01T09:04:29;9.30;;;7.40;;
1591;SDS011;789;51.612;7.510;2023-08-01T09:07:01;8.40;;;7.20;;
1591;SDS011;789;51.612;7.510;2023-08-01T09:09:28;8.57;;;7.67;;
1591;SDS011;789;51.612;7.510;2023-08-01T09:11:55;15.30;;;8.77;;
1591;SDS011;789;51.612;7.510;2023-08-01T09:14:24;14.10;;;8.27;;
1591;SDS011;789;51.612;7.510;2023-08-01T09:16:52;13.80;;;7.87;;
1591;SDS011;789;51.612;7.510;2023-08-01T09:19:20;8.70;;;6.90;;
1591;SDS011;789;51.612;7.510;2023-08-01T09:21:47;9.03;;;7.67;;
1591;SDS011;789;51.612;7.510;2023-08-01T09:24:18;8.73;;;7.00;;
1591;SDS011;789;51.612;7.510;2023-08-01T09:26:46;8.70;;;6.07;;
1591;SDS011;789;51.612;7.510;2023-08-01T09:29:15;7.50;;;5.27;;
1591;SDS011;789;51.612;7.510;2023-08-01T09:31:43;9.47;;;6.53;;
1591;SDS011;789;51.612;7.510;2023-08-01T09:34:17;9.70;;;6.50;;
1591;SDS011;789;51.612;7.510;2023-08-01T09:36:45;10.07;;;6.57;;
1591;SDS011;789;51.612;7.510;2023-08-01T09:39:15;12.57;;;6.97;;
1591;SDS011;789;51.612;7.510;2023-08-01T09:41:44;8.47;;;6.50;;
1591;SDS011;789;51.612;7.510;2023-08-01T09:44:15;11.67;;;7.50;;
1591;SDS011;789;51.612;7.510;2023-08-01T09:46:42;13.93;;;7.37;;
1591;SDS011;789;51.612;7.510;2023-08-01T09:49:12;9.90;;;6.67;;
1591;SDS011;789;51.612;7.510;2023-08-01T09:51:46;7.80;;;6.80;;
1591;SDS011;789;51.612;7.510;2023-08-01T09:54:14;7.93;;;6.10;;
1591;SDS011;789;51.612;7.510;2023-08-01T09:56:43;9.33;;;6.30;;
1591;SDS011;789;51.612;7.510;2023-08-01T09:59:11;8.03;;;6.00;;
1591;SDS011;789;51.612;7.510;2023-08-01T10:01:41;7.67;;;5.63;;
1591;SDS011;789;51.612;7.510;2023-08-01T10:04:10;12.23;;;5.70;;
1591;SDS011;789;51.612;7.510;2023-08-01T10:06:38;8.77;;;5.57;;
1591;SDS011;789;51.612;7.510;2023-08-01T10:09:10;8.57;;;6.00;;
1591;SDS011;789;51.612;7.510;2023-08-01T10:11:38;10.23;;;5.50;;
1591;SDS011;789;51.612;7.510;2023-08-01T10:14:08;10.37;;;6.80;;
1591;SDS011;789;51.612;7.510;2023-08-01T10:16:37;10.80;;;6.60;;
1591;SDS011;789;51.612;7.510;2023-08-01T10:19:06;8.73;;;5.83;;
1591;SDS011;789;51.612;7.510;2023-08-01T10:21:34;8.63;;;5.90;;
1591;SDS011;789;51.612;7.510;2023-08-01T10:24:03;8.73;;;5.97;;
1591;SDS011;789;51.612;7.510;2023-08-01T10:26:34;6.60;;;5.43;;
1591;SDS011;789;51.612;7.510;2023-08-01T10:29:01;7.30;;;5.33;;
1591;SDS011;789;51.612;7.510;2023-08-01T10:31:29;8.20;;;5.50;;
1591;SDS011;789;51.612;7.510;2023-08-01T10:34:04;7.63;;;4.83;;
1591;SDS011;789;51.612;7.510;2023-08-01T10:36:33;6.53;;;5.07;;
1591;SDS011;789;51.612;7.510;2023-08-01T10:39:04;7.20;;;5.50;;
1591;SDS011;789;51.612;7.510;2023-08-01T10:41:31;6.33;;;5.00;;
1591;SDS011;789;51.612;7.510;2023-08-01T10:44:06;7.47;;;5.20;;
1591;SDS011;789;51.612;7.510;2023-08-01T10:46:47;8.37;;;5.17;;
1591;SDS011;789;51.612;7.510;2023-08-01T10:49:14;7.03;;;5.67;;
1591;SDS011;789;51.612;7.510;2023-08-01T10:51:43;6.43;;;4.67;;
1591;SDS011;789;51.612;7.510;2023-08-01T10:54:20;8.23;;;5.20;;
1591;SDS011;789;51.612;7.510;2023-08-01T10:56:48;5.17;;;4.63;;
1591;SDS011;789;51.612;7.510;2023-08-01T10:59:18;7.27;;;4.97;;
1591;SDS011;789;51.612;7.510;2023-08-01T11:01:49;6.90;;;4.70;;
1591;SDS011;789;51.612;7.510;2023-08-01T11:04:17;6.23;;;4.93;;
1591;SDS011;789;51.612;7.510;2023-08-01T11:06:48;6.40;;;5.13;;
1591;SDS011;789;51.612;7.510;2023-08-01T11:09:16;6.67;;;5.97;;
1591;SDS011;789;51.612;7.510;2023-08-01T11:11:44;7.00;;;6.03;;
1591;SDS011;789;51.612;7.510;2023-08-01T11:14:11;8.87;;;6.20;;
1591;SDS011;789;51.612;7.510;2023-08-01T11:16:39;8.80;;;5.93;;
1591;SDS011;789;51.612;7.510;2023-08-01T11:19:16;7.93;;;6.30;;
1591;SDS011;789;51.612;7.510;2023-08-01T11:21:44;8.23;;;5.53;;
1591;SDS011;789;51.612;7.510;2023-08-01T11:24:11;6.53;;;4.90;;
1591;SDS011;789;51.612;7.510;2023-08-01T11:26:39;6.20;;;4.53;;
1591;SDS011;789;51.612;7.510;2023-08-01T11:29:07;7.70;;;5.40;;
1591;SDS011;789;51.612;7.510;2023-08-01T11:31:34;7.73;;;4.83;;
1591;SDS011;789;51.612;7.510;2023-08-01T11:34:01;7.50;;;4.00;;
1591;SDS011;789;51.612;7.510;2023-08-01T11:36:29;8.07;;;4.10;;
1591;SDS011;789;51.612;7.510;2023-08-01T11:38:57;5.90;;;4.47;;
1591;SDS011;789;51.612;7.510;2023-08-01T11:41:27;5.33;;;4.17;;
1591;SDS011;789;51.612;7.510;2023-08-01T11:43:54;6.67;;;4.20;;
1591;SDS011;789;51.612;7.510;2023-08-01T11:46:22;3.97;;;3.57;;
1591;SDS011;789;51.612;7.510;2023-08-01T11:48:49;4.70;;;3.30;;
1591;SDS011;789;51.612;7.510;2023-08-01T11:51:16;7.43;;;4.30;;
1591;SDS011;789;51.612;7.510;2023-08-01T11:53:44;6.40;;;4.67;;
1591;SDS011;789;51.612;7.510;2023-08-01T11:56:22;5.93;;;5.33;;
1591;SDS011;789;51.612;7.510;2023-08-01T11:58:49;6.93;;;5.13;;
1591;SDS011;789;51.612;7.510;2023-08-01T12:01:17;7.07;;;5.47;;
1591;SDS011;789;51.612;7.510;2023-08-01T12:03:45;4.43;;;4.07;;
1591;SDS011;789;51.612;7.510;2023-08-01T12:06:13;5.90;;;4.50;;
1591;SDS011;789;51.612;7.510;2023-08-01T12:08:41;5.70;;;4.87;;
1591;SDS011;789;51.612;7.510;2023-08-01T12:11:18;7.63;;;5.33;;
1591;SDS011;789;51.612;7.510;2023-08-01T12:13:59;8.23;;;4.83;;
1591;SDS011;789;51.612;7.510;2023-08-01T12:16:26;5.00;;;3.93;;
1591;SDS011;789;51.612;7.510;2023-08-01T12:18:54;5.43;;;4.87;;
1591;SDS011;789;51.612;7.510;2023-08-01T12:21:22;4.30;;;3.27;;
1591;SDS011;789;51.612;7.510;2023-08-01T12:23:49;6.57;;;3.50;;
1591;SDS011;789;51.612;7.510;2023-08-01T12:26:15;5.20;;;3.17;;
1591;SDS011;789;51.612;7.510;2023-08-01T12:28:44;5.17;;;3.07;;
1591;SDS011;789;51.612;7.510;2023-08-01T12:31:15;6.17;;;2.60;;
1591;SDS011;789;51.612;7.510;2023-08-01T12:33:42;3.67;;;2.10;;
1591;SDS011;789;51.612;7.510;2023-08-01T12:36:09;10.63;;;2.67;;
1591;SDS011;789;51.612;7.510;2023-08-01T12:38:36;4.50;;;2.30;;
1591;SDS011;789;51.612;7.510;2023-08-01T12:41:03;5.80;;;2.47;;
1591;SDS011;789;51.612;7.510;2023-08-01T12:43:29;10.80;;;2.80;;
1591;SDS011;789;51.612;7.510;2023-08-01T12:45:58;4.73;;;2.47;;
1591;SDS011;789;51.612;7.510;2023-08-01T12:48:26;3.70;;;2.60;;
1591;SDS011;789;51.612;7.510;2023-08-01T12:50:53;8.40;;;2.83;;
1591;SDS011;789;51.612;7.510;2023-08-01T12:53:21;5.60;;;2.50;;
1591;SDS011;789;51.612;7.510;2023-08-01T12:55:49;3.70;;;2.83;;
1591;SDS011;789;51.612;7.510;2023-08-01T12:58:17;6.40;;;3.20;;
1591;SDS011;789;51.612;7.510;2023-08-01T13:00:44;5.10;;;3.03;;
1591;SDS011;789;51.612;7.510;2023-08-01T13:03:13;7.53;;;2.67;;
1591;SDS011;789;51.612;7.510;2023-08-01T13:05:40;5.37;;;2.63;;
1591;SDS011;789;51.612;7.510;2023-08-01T13:08:09;5.30;;;3.10;;
1591;SDS011;789;51.612;7.510;2023-08-01T13:10:38;8.27;;;3.10;;
1591;SDS011;789;51.612;7.510;2023-08-01T13:13:05;8.30;;;2.83;;
1591;SDS011;789;51.612;7.510;2023-08-01T13:15:32;7.27;;;3.10;;
1591;SDS011;789;51.612;7.510;2023-08-01T13:17:59;6.90;;;3.00;;
1591;SDS011;789;51.612;7.510;2023-08-01T13:20:27;4.83;;;2.93;;
1591;SDS011;789;51.612;7.510;2023-08-01T13:22:54;5.83;;;2.83;;
1591;SDS011;789;51.612;7.510;2023-08-01T13:25:21;4.70;;;2.50;;
1591;SDS011;789;51.612;7.510;2023-08-01T13:27:48;5.17;;;3.10;;
1591;SDS011;789;51.612;7.510;2023-08-01T13:30:14;7.73;;;3.20;;
1591;SDS011;789;51.612;7.510;2023-08-01T13:32:42;6.20;;;3.27;;
1591;SDS011;789;51.612;7.510;2023-08-01T13:35:12;4.60;;;3.10;;
1591;SDS011;789;51.612;7.510;2023-08-01T13:37:43;5.30;;;3.33;;
1591;SDS011;789;51.612;7.510;2023-08-01T13:40:11;6.33;;;3.20;;
1591;SDS011;789;51.612;7.510;2023-08-01T13:42:41;4.80;;;3.33;;
1591;SDS011;789;51.612;7.510;2023-08-01T13:45:09;7.27;;;4.10;;
1591;SDS011;789;51.612;7.510;2023-08-01T13:47:41;5.23;;;3.13;;
1591;SDS011;789;51.612;7.510;2023-08-01T13:50:08;11.20;;;3.57;;
1591;SDS011;789;51.612;7.510;2023-08-01T13:52:36;5.37;;;3.40;;
1591;SDS011;789;51.612;7.510;2023-08-01T13:55:06;6.03;;;3.20;;
1591;SDS011;789;51.612;7.510;2023-08-01T13:57:36;6.53;;;2.97;;
1591;SDS011;789;51.612;7.510;2023-08-01T14:00:04;8.03;;;3.30;;
1591;SDS011;789;51.612;7.510;2023-08-01T14:02:35;7.43;;;3.20;;
1591;SDS011;789;51.612;7.510;2023-08-01T14:05:02;4.73;;;2.90;;
1591;SDS011;789;51.612;7.510;2023-08-01T14:07:29;6.23;;;3.00;;
1591;SDS011;789;51.612;7.510;2023-08-01T14:09:58;5.43;;;2.70;;
1591;SDS011;789;51.612;7.510;2023-08-01T14:12:28;8.43;;;2.97;;
1591;SDS011;789;51.612;7.510;2023-08-01T14:14:57;5.53;;;2.90;;
1591;SDS011;789;51.612;7.510;2023-08-01T14:17:25;8.47;;;2.53;;
1591;SDS011;789;51.612;7.510;2023-08-01T14:19:52;6.63;;;2.60;;
1591;SDS011;789;51.612;7.510;2023-08-01T14:22:21;5.17;;;2.50;;
1591;SDS011;789;51.612;7.510;2023-08-01T14:24:48;4.37;;;2.23;;
1591;SDS011;789;51.612;7.510;2023-08-01T14:27:19;7.33;;;2.50;;
1591;SDS011;789;51.612;7.510;2023-08-01T14:29:47;7.93;;;2.57;;
1591;SDS011;789;51.612;7.510;2023-08-01T14:32:17;3.47;;;1.97;;
1591;SDS011;789;51.612;7.510;2023-08-01T14:34:45;6.30;;;2.87;;
1591;SDS011;789;51.612;7.510;2023-08-01T14:37:12;6.70;;;2.30;;
1591;SDS011;789;51.612;7.510;2023-08-01T14:39:38;3.63;;;2.03;;
1591;SDS011;789;51.612;7.510;2023-08-01T14:42:06;5.20;;;2.50;;
1591;SDS011;789;51.612;7.510;2023-08-01T14:44:34;6.07;;;2.40;;
1591;SDS011;789;51.612;7.510;2023-08-01T14:47:03;6.37;;;2.40;;
1591;SDS011;789;51.612;7.510;2023-08-01T14:49:35;3.97;;;1.87;;
1591;SDS011;789;51.612;7.510;2023-08-01T14:52:03;5.70;;;3.00;;
1591;SDS011;789;51.612;7.510;2023-08-01T14:54:30;7.20;;;2.70;;
1591;SDS011;789;51.612;7.510;2023-08-01T14:56:57;6.77;;;2.90;;
1591;SDS011;789;51.612;7.510;2023-08-01T14:59:24;5.53;;;2.67;;
1591;SDS011;789;51.612;7.510;2023-08-01T15:01:51;6.43;;;2.87;;
1591;SDS011;789;51.612;7.510;2023-08-01T15:04:19;9.07;;;2.50;;
1591;SDS011;789;51.612;7.510;2023-08-01T15:06:47;7.53;;;2.47;;
1591;SDS011;789;51.612;7.510;2023-08-01T15:09:14;4.53;;;2.20;;
1591;SDS011;789;51.612;7.510;2023-08-01T15:11:41;5.27;;;2.00;;
1591;SDS011;789;51.612;7.510;2023-08-01T15:14:08;5.70;;;2.40;;
1591;SDS011;789;51.612;7.510;2023-08-01T15:16:35;5.40;;;2.53;;
1591;SDS011;789;51.612;7.510;2023-08-01T15:19:04;5.43;;;2.73;;
1591;SDS011;789;51.612;7.510;2023-08-01T15:21:32;4.03;;;2.10;;
1591;SDS011;789;51.612;7.510;2023-08-01T15:23:58;4.30;;;2.30;;